Wakefield, Ohio
Current Conditions -  °F | °C
As of 9:54 AM on Thursday 23 Oct 2014 (Local Time) from KRZT Reporting Station
Scattered Clouds Scattered Clouds  
Wind Chill: 42°   Ceiling: Unl
Heat Index: 45°   Visibility: 7mi
Dew Point: 41°   Wind: 5mph
Humidity: 87%   Direction: 10°N
Pressure: 30.25"   Gusts: NA
Location:  38.97°N, 83.02°W
Report Text: KRZT 231354Z AUTO 01004KT 7SM SCT008 07/05 A3025 RMK AO2
Loading
Personal Weather Stations






























Interactive Weather Map
Tropical Storm Tracking
New forecast layout! Learn more

10-Day Weather Forecast

Advertisements
Track Severe Weather on mobile